Latest Weather Observations for Wilsons Promontory

IDV60801

Issued at 9:32 pm EST Thursday 29 September 2016 (issued every 30 minutes, with the page automatically refreshed every 10 minutes)

About weather observations | Map of weather stations | Latest weather observations for VIC | Other Formats
Station Details ID: 085096 Name: WILSONS PROMONTORY LIGHTHOUSE Lat: -39.13 Lon: 146.42 Height: 95.0 m
Data from the previous 72 hours. | See also: Recent months at Wilsons Promontory
Date/Time
EST
Temp
°C
App
Temp
°C
Dew
Point
°C
Rel
Hum
%
Delta-T
°C
Wind Press
QNH
hPa
Press
MSL
hPa
Rain since
9am
mm
Dir  Spd
km/h
Gust
km/h
Spd
kts
Gust
kts
29/09:30pm 10.8 7.6 8.6 86 1.1 NNE 15 17 8 9 991.4 - 4.0
29/09:00pm 10.7 7.5 8.6 87 1.0 NNE 15 19 8 10 991.6 991.7 4.0
29/08:30pm 11.2 8.1 8.9 86 1.1 N 15 20 8 11 991.5 - 4.0
29/08:00pm 11.1 7.5 8.3 83 1.4 N 17 22 9 12 991.6 - 4.0
29/07:30pm 11.4 10.4 7.3 76 2.0 N 2 9 1 5 991.3 - 4.0
29/07:00pm 11.5 11.0 7.8 78 1.8 CALM 0 0 0 0 991.1 - 4.0
29/06:30pm 11.4 10.8 7.5 77 1.9 CALM 0 0 0 0 990.9 - 4.0
29/06:00pm 12.3 9.7 7.6 73 2.3 W 11 17 6 9 990.3 990.4 4.0
29/05:30pm 12.9 10.2 7.4 69 2.7 W 11 17 6 9 989.9 - 4.0
29/05:00pm 13.2 10.5 7.2 67 2.9 W 11 17 6 9 989.4 - 4.0
29/04:30pm 12.9 10.1 8.4 74 2.2 W 13 19 7 10 989.1 - 4.0
29/04:00pm 12.9 8.6 7.8 71 2.5 WSW 20 32 11 17 988.5 - 4.0
29/03:30pm 12.7 8.6 7.8 72 2.4 WSW 19 30 10 16 988.5 - 4.0
29/03:00pm 12.0 7.2 8.8 81 1.6 W 24 35 13 19 988.6 988.6 4.0
29/02:30pm 11.4 5.0 8.6 83 1.4 W 32 48 17 26 987.9 - 4.0
29/02:00pm 10.7 5.0 8.3 85 1.2 WNW 28 48 15 26 988.0 - 4.0
29/01:36pm 10.7 4.5 7.9 83 1.4 W 30 61 16 33 988.0 - 4.0
29/01:30pm 10.8 5.7 7.7 81 1.5 WNW 24 61 13 33 988.1 - 3.8
29/01:17pm 11.4 4.5 7.3 76 2.0 NNW 33 56 18 30 988.8 - 3.6
29/01:16pm 11.4 3.0 7.3 76 2.0 NNW 41 56 22 30 988.6 - 3.6
29/01:00pm 11.6 6.9 7.9 78 1.8 W 22 43 12 23 988.4 - 3.6
29/12:30pm 13.0 10.5 10.9 87 1.1 NW 15 26 8 14 988.1 - 3.6
29/12:00pm 12.8 10.3 11.2 90 0.9 NNE 15 20 8 11 988.6 988.6 3.6
29/11:30am 12.4 9.8 10.8 90 0.8 NNE 15 20 8 11 988.6 - 3.4
29/11:00am 12.3 8.3 10.5 89 0.9 NNE 22 37 12 20 989.1 - 3.4
29/10:30am 12.3 7.9 10.5 89 0.9 NNE 24 39 13 21 989.3 - 2.2
29/10:01am 12.3 7.2 10.7 90 0.8 N 28 46 15 25 989.3 - 1.8
29/10:00am 12.3 6.8 10.7 90 0.8 N 30 46 16 25 989.3 - 1.8
29/09:30am 12.2 7.2 10.8 91 0.7 NNE 28 43 15 23 989.7 - 1.4
29/09:22am 12.2 6.8 10.8 91 0.7 NNE 30 48 16 26 989.7 - 1.2
29/09:00am 12.1 7.0 10.7 91 0.7 NNE 28 41 15 22 989.8 989.8 14.8
29/08:30am 12.2 6.7 10.6 90 0.8 NNE 30 41 16 22 989.8 - 13.2
29/08:00am 12.2 6.7 10.6 90 0.8 NNE 30 43 16 23 990.0 - 12.4
29/07:45am 12.2 6.1 10.6 90 0.8 NNE 33 52 18 28 990.1 - 12.0
29/07:30am 12.2 5.0 10.4 89 0.9 NNE 39 52 21 28 990.0 - 11.6
29/07:00am 12.3 5.8 10.5 89 0.9 NNE 35 46 19 25 990.1 - 10.4
29/06:30am 12.2 5.3 10.3 88 1.0 NNE 37 54 20 29 990.5 - 10.0
29/06:00am 12.1 6.5 10.3 89 0.9 NNE 30 39 16 21 990.6 990.7 9.8
29/05:44am 12.1 6.5 10.3 89 0.9 NNE 30 48 16 26 990.8 - 9.4
29/05:30am 12.2 6.3 10.6 90 0.8 N 32 44 17 24 991.2 - 8.6
29/05:00am 12.1 8.2 10.7 91 0.7 NNE 22 39 12 21 991.5 - 6.6
29/04:30am 11.9 5.8 10.5 91 0.7 NE 33 43 18 23 991.8 - 4.6
29/04:00am 12.1 7.7 10.3 89 0.9 NNE 24 37 13 20 992.9 - 2.8
29/03:30am 12.5 7.7 10.2 86 1.2 NNE 26 43 14 23 993.6 - 0.4
29/03:00am 12.9 7.3 10.3 84 1.4 NNE 30 44 16 24 994.0 994.1 0.0
29/02:44am 12.7 6.6 10.4 86 1.2 NNE 33 52 18 28 993.8 - 0.0
29/02:30am 12.5 6.9 10.2 86 1.2 NE 30 39 16 21 993.4 - 0.0
29/02:10am 12.7 6.8 10.4 86 1.2 NNE 32 50 17 27 994.8 - 0.0
29/02:00am 12.7 6.6 10.6 87 1.1 NNE 33 46 18 25 995.4 - 0.0
29/01:30am 12.6 7.1 10.7 88 1.0 NNE 30 35 16 19 996.1 - 0.0
29/01:00am 12.6 7.9 10.5 87 1.1 NE 26 33 14 18 996.9 - 0.0
29/12:30am 12.6 6.7 10.5 87 1.1 NE 32 41 17 22 997.5 - 0.0
29/12:00am 12.8 6.3 10.5 86 1.2 NE 35 43 19 23 997.9 997.9 0.0
 
Date/Time
EST
Temp
°C
App
Temp
°C
Dew
Point
°C
Rel
Hum
%
Delta-T
°C
Wind Press
QNH
hPa
Press
MSL
hPa
Rain since
9am
mm
Dir  Spd
km/h
Gust
km/h
Spd
kts
Gust
kts
28/11:30pm 12.8 6.4 10.7 87 1.1 NE 35 44 19 24 999.1 - 0.0
28/11:00pm 12.9 4.8 10.6 86 1.2 NE 44 54 24 29 999.4 - 0.0
28/10:30pm 12.9 4.9 10.4 85 1.3 NE 43 52 23 28 1000.0 - 0.0
28/10:00pm 12.8 5.1 10.2 84 1.3 NNE 41 54 22 29 1001.0 - 0.0
28/09:30pm 12.8 4.5 10.2 84 1.3 NE 44 52 24 28 1001.0 - 0.0
28/09:00pm 12.7 4.0 10.1 84 1.4 NE 46 57 25 31 1001.3 1001.4 0.0
28/08:30pm 12.6 4.2 9.8 83 1.4 NE 44 52 24 28 1001.9 - 0.0
28/08:00pm 12.6 4.1 9.2 80 1.7 NE 44 54 24 29 1002.4 - 0.0
28/07:30pm 12.6 4.6 9.1 79 1.8 NE 41 48 22 26 1002.7 - 0.0
28/07:00pm 12.6 4.5 8.7 77 2.0 NE 41 48 22 26 1002.7 - 0.0
28/06:30pm 12.6 4.4 8.3 75 2.1 NE 41 48 22 26 1003.1 - 0.0
28/06:00pm 12.6 5.6 8.5 76 2.1 NE 35 43 19 23 1003.7 1003.8 0.0
28/05:30pm 12.6 6.0 8.5 76 2.0 NNE 33 43 18 23 1004.1 - 0.0
28/05:00pm 12.7 5.0 8.6 76 2.1 NE 39 50 21 27 1003.6 - 0.0
28/04:30pm 12.8 5.9 8.9 77 2.0 NNE 35 43 19 23 1003.9 - 0.0
28/04:00pm 13.3 7.8 9.0 75 2.2 NE 28 35 15 19 1004.5 - 0.0
28/03:30pm 13.9 10.1 9.9 77 2.1 NE 20 26 11 14 1005.1 - 0.0
28/03:00pm 13.5 9.1 8.8 73 2.4 ENE 22 26 12 14 1005.8 1005.8 0.0
28/02:30pm 13.8 10.5 8.2 69 2.8 E 15 17 8 9 1006.2 - 0.0
28/02:00pm 14.3 11.3 7.8 65 3.2 E 13 15 7 8 1007.1 - 0.0
28/01:30pm 14.8 11.4 7.6 62 3.6 ENE 15 19 8 10 1008.0 - 0.0
28/01:00pm 14.9 12.5 8.8 67 3.1 NE 11 20 6 11 1008.7 - 0.0
28/12:30pm 14.9 10.8 7.7 62 3.6 W 19 28 10 15 1009.2 - 0.0
28/12:00pm 14.9 11.5 7.5 61 3.7 W 15 26 8 14 1009.7 1009.8 0.0
28/11:30am 14.5 11.0 7.3 62 3.6 W 15 30 8 16 1009.9 - 0.0
28/11:00am 14.5 10.3 7.5 63 3.5 W 19 30 10 16 1010.3 - 0.0
28/10:30am 14.9 12.3 7.9 63 3.5 WSW 11 20 6 11 1010.6 - 0.0
28/10:00am 14.5 12.5 7.3 62 3.6 NNW 7 24 4 13 1010.8 - 0.0
28/09:30am 14.3 12.9 7.4 63 3.4 NNW 4 13 2 7 1011.2 - 0.0
28/09:00am 13.7 11.0 7.2 65 3.2 NNW 11 22 6 12 1011.3 1011.4 4.8
28/08:30am 12.6 8.2 6.6 67 2.9 WNW 19 32 10 17 1011.4 - 4.8
28/08:00am 12.6 10.6 6.9 68 2.8 SSW 7 28 4 15 1011.5 - 4.8
28/07:30am 11.9 7.2 6.2 68 2.7 NW 20 39 11 21 1011.5 - 4.8
28/07:00am 11.8 7.2 6.3 69 2.6 NW 20 39 11 21 1011.6 - 4.8
28/06:30am 11.1 4.6 6.3 72 2.3 NW 30 54 16 29 1011.2 - 4.8
28/06:01am 11.3 5.1 6.0 70 2.5 NW 28 48 15 26 1010.9 - 4.8
28/06:00am 11.3 5.5 6.2 71 2.4 NW 26 48 14 26 1010.9 1011.0 4.8
28/05:30am 11.0 5.5 6.0 71 2.3 NW 24 46 13 25 1011.0 - 4.8
28/05:00am 10.9 6.7 5.9 71 2.3 NNW 17 37 9 20 1011.0 - 4.8
28/04:30am 11.1 6.3 5.4 68 2.6 NNW 20 41 11 22 1010.9 - 4.8
28/04:00am 11.1 6.3 5.4 68 2.6 NW 20 41 11 22 1010.8 - 4.8
28/03:30am 11.2 4.9 5.9 70 2.5 NW 28 44 15 24 1010.5 - 4.8
28/03:13am 11.0 4.8 6.0 71 2.3 NW 28 48 15 26 1010.6 - 4.8
28/03:00am 10.9 5.1 6.1 72 2.3 NW 26 43 14 23 1010.6 1010.7 4.8
28/02:30am 10.8 4.8 5.3 69 2.5 NW 26 44 14 24 1010.5 - 4.8
28/02:00am 11.0 5.2 6.4 73 2.2 NW 26 43 14 23 1010.9 - 4.8
28/01:30am 11.0 5.3 6.7 75 2.0 NW 26 35 14 19 1010.9 - 4.8
28/01:00am 11.3 6.0 7.0 75 2.1 WNW 24 37 13 20 1011.0 - 4.8
28/12:42am 11.4 5.5 7.3 76 2.0 WNW 28 46 15 25 1011.0 - 4.8
28/12:30am 11.1 6.8 7.2 77 1.9 NW 19 33 10 18 1011.4 - 4.8
28/12:00am 11.3 6.5 7.2 76 2.0 W 22 37 12 20 1011.3 1011.4 4.8
 
Date/Time
EST
Temp
°C
App
Temp
°C
Dew
Point
°C
Rel
Hum
%
Delta-T
°C
Wind Press
QNH
hPa
Press
MSL
hPa
Rain since
9am
mm
Dir  Spd
km/h
Gust
km/h
Spd
kts
Gust
kts
27/11:30pm 11.1 5.8 6.8 75 2.0 W 24 35 13 19 1011.4 - 4.8
27/11:00pm 11.3 5.9 6.4 72 2.3 W 24 33 13 18 1011.3 - 4.8
27/10:30pm 11.2 4.6 5.9 70 2.5 W 30 43 16 23 1011.3 - 4.8
27/10:00pm 11.1 5.1 5.4 68 2.6 W 26 35 14 19 1011.3 - 4.8
27/09:30pm 11.2 5.4 6.1 71 2.4 W 26 35 14 19 1011.4 - 4.8
27/09:00pm 11.1 6.1 6.5 73 2.2 W 22 35 12 19 1011.5 1011.6 4.8
27/08:30pm 11.0 5.6 6.2 72 2.3 W 24 39 13 21 1011.6 - 4.8
27/08:00pm 10.9 3.7 5.2 68 2.6 W 32 44 17 24 1011.4 - 4.8
27/07:30pm 11.1 4.0 6.3 72 2.3 W 33 44 18 24 1011.4 - 4.8
27/07:00pm 11.2 4.4 6.9 75 2.1 W 32 44 17 24 1011.3 - 4.8
27/06:30pm 11.1 4.2 7.2 77 1.9 W 33 52 18 28 1010.7 - 4.8
27/06:11pm 10.9 4.6 8.8 87 1.0 W 32 50 17 27 1010.4 - 4.8
27/06:00pm 10.8 3.1 8.6 86 1.1 W 39 52 21 28 1010.4 1010.5 4.8
27/05:30pm 11.1 3.6 9.4 89 0.9 W 39 54 21 29 1010.1 - 4.8
27/05:00pm 11.0 4.5 9.1 88 1.0 W 33 52 18 28 1010.1 - 4.0
27/04:46pm 10.9 4.9 8.8 87 1.0 W 30 48 16 26 1010.0 - 3.6
27/04:30pm 11.5 5.1 9.2 86 1.2 W 33 48 18 26 1009.7 - 3.2
27/04:06pm 11.4 4.7 9.7 89 0.9 W 35 54 19 29 1009.6 - 3.2
27/04:00pm 11.2 4.1 9.6 90 0.8 W 37 54 20 29 1009.5 - 3.2
27/03:58pm 11.0 4.2 9.4 90 0.8 W 35 54 19 29 1009.5 - 3.2
27/03:30pm 10.8 6.0 8.7 87 1.0 W 24 37 13 20 1009.7 - 1.0
27/03:00pm 11.0 4.8 7.9 81 1.5 W 30 46 16 25 1009.7 1009.8 0.4
27/02:35pm 11.2 3.7 8.1 81 1.5 W 37 56 20 30 1009.3 - 0.4
27/02:30pm 11.4 4.0 8.3 81 1.5 W 37 52 20 28 1009.4 - 0.4
27/02:08pm 11.7 5.9 9.3 85 1.2 W 30 50 16 27 1009.3 - 0.4
27/02:00pm 11.3 6.1 8.9 85 1.2 W 26 44 14 24 1009.4 - 0.4
27/01:44pm 11.4 5.1 8.8 84 1.3 W 32 50 17 27 1009.4 - 0.0
27/01:30pm 11.2 4.7 8.8 85 1.2 W 33 48 18 26 1009.6 - 0.0
27/01:18pm 11.3 5.3 8.5 83 1.4 W 30 52 16 28 1009.4 - 0.0
27/01:00pm 12.7 6.9 8.0 73 2.3 W 28 39 15 21 1009.5 - 0.0
27/12:30pm 13.5 6.0 8.1 70 2.7 W 37 44 20 24 1009.3 - 0.0
27/12:00pm 12.8 6.2 7.9 72 2.4 W 32 46 17 25 1009.3 1009.4 0.0
27/11:30am 12.5 5.7 7.6 72 2.4 W 33 44 18 24 1009.2 - 0.0
27/11:00am 12.8 6.3 8.3 74 2.2 W 32 41 17 22 1009.5 - 0.0
27/10:30am 11.1 3.4 7.0 76 2.0 W 37 52 20 28 1009.2 - 0.0
27/10:27am 11.3 4.3 7.0 75 2.1 W 33 52 18 28 1009.1 - 0.0
27/10:00am 11.6 4.7 7.3 75 2.1 W 33 48 18 26 1009.1 - 0.0
27/09:30am 11.1 3.2 6.3 72 2.3 W 37 50 20 27 1008.9 - 0.0
27/09:00am 11.1 4.0 6.6 74 2.1 W 33 50 18 27 1008.6 1008.7 10.8
27/08:30am 11.1 4.6 6.5 73 2.2 W 30 44 16 24 1008.3 - 10.8
27/08:00am 10.7 4.6 6.6 76 1.9 W 28 44 15 24 1008.4 - 10.8
27/07:30am 9.8 3.5 5.6 75 1.9 W 28 39 15 21 1008.1 - 10.8
27/07:00am 9.2 4.2 6.5 83 1.3 W 22 43 12 23 1007.8 - 10.8
27/06:30am 8.7 2.1 6.2 84 1.2 WNW 30 44 16 24 1007.6 - 10.8
27/06:00am 8.3 2.0 5.8 84 1.1 WNW 28 41 15 22 1007.4 1007.5 10.8
27/05:30am 8.4 1.8 6.0 85 1.1 WNW 30 43 16 23 1007.3 - 10.8
27/05:00am 8.4 2.1 5.9 84 1.1 W 28 41 15 22 1007.1 - 10.8
27/04:42am 8.3 2.0 5.9 85 1.1 W 28 48 15 26 1006.9 - 10.8
27/04:30am 8.3 2.1 6.1 86 1.0 W 28 37 15 20 1007.0 - 10.8
27/04:00am 8.2 1.1 5.7 84 1.1 WNW 32 44 17 24 1007.0 - 10.8
27/03:40am 8.1 1.0 5.6 84 1.1 WNW 32 50 17 27 1006.9 - 10.8
27/03:30am 8.0 0.7 5.6 85 1.1 WNW 33 46 18 25 1006.7 - 10.8
27/03:00am 7.8 -1.4 5.4 85 1.1 WNW 43 74 23 40 1006.4 1006.4 10.2
27/02:30am 8.0 -0.8 5.6 85 1.1 WNW 41 59 22 32 1006.2 - 9.2
27/02:11am 8.2 0.1 5.3 82 1.3 WNW 37 56 20 30 1006.4 - 8.8
27/02:00am 8.3 -1.1 5.4 82 1.3 WNW 44 59 24 32 1006.7 - 8.8
27/01:30am 8.1 -2.3 6.1 87 0.9 WNW 50 80 27 43 1006.8 - 8.6
27/01:07am 8.6 2.5 6.4 86 1.0 WNW 28 56 15 30 1007.7 - 8.4
27/01:00am 8.9 3.2 6.7 86 1.0 WNW 26 44 14 24 1008.1 - 8.4
27/12:30am 10.0 4.7 6.7 80 1.6 NNW 24 39 13 21 1008.2 - 7.0
27/12:10am 10.4 4.4 6.9 79 1.7 NNW 28 43 15 23 1008.1 - 6.8
27/12:00am 10.0 6.9 7.4 84 1.2 N 13 19 7 10 1008.5 1008.6 6.4
 
Date/Time
EST
Temp
°C
App
Temp
°C
Dew
Point
°C
Rel
Hum
%
Delta-T
°C
Wind Press
QNH
hPa
Press
MSL
hPa
Rain since
9am
mm
Dir  Spd
km/h
Gust
km/h
Spd
kts
Gust
kts
26/11:30pm 10.0 8.2 7.3 83 1.3 N 6 13 3 7 1008.7 - 5.6
26/11:00pm 10.3 8.0 7.5 83 1.3 NNE 9 15 5 8 1009.1 - 5.2
26/10:30pm 10.4 7.8 7.6 83 1.3 N 11 19 6 10 1009.3 - 3.6
26/10:00pm 10.5 5.9 8.1 85 1.2 NNE 22 32 12 17 1009.1 - 1.2

Other Formats:

Comma delimited format used in spreadsheet applications
http://www.bom.gov.au/fwo/IDV60801/IDV60801.94893.axf

JavaScript Object Notation format (JSON) in row-major order
http://www.bom.gov.au/fwo/IDV60801/IDV60801.94893.json